Terminal Aerodrome Forecast
Issued by NWS

Current Version | Previous Version | Graphics & Text | Print | Product List | Glossary On
Versions: 1 2 3 4 5 6 7 8 9 10 11 12 13 14 15 16 17 18 19 20 21 22 23 24 25 26 27 28 29
600
FTUS41 KPBZ 280524
TAFHLG
TAF
KHLG 280524Z 2806/2906 28005KT P6SM SCT250
      TEMPO 2810/2812 2SM BR
     FM281600 17003KT P6SM FEW120
     FM282100 17004KT P6SM BKN130=

USA.gov is the U.S. government's official web portal to all federal, state and local government web resources and services.